Time;durP1;ratioP1;P1;durP2;ratioP2;P2;SDS_P1;SDS_P2;PMS_P1;PMS_P2;Temp;Humidity;BMP_temperature;BMP_pressure;BME280_temperature;BME280_humidity;BME280_pressure;Samples;Min_cycle;Max_cycle;Signal;HPM_P1;HPM_P2
2022/11/20 00:00:43;;;;;;;6.72;4.18;;;;;;;-0.53;100.00;92486.44;2131365;27;20022;-75
2022/11/20 00:01:44;;;;;;;6.72;4.20;;;;;;;-0.55;100.00;92483.44;2140618;27;20440;-72
2022/11/20 00:02:45;;;;;;;8.30;4.47;;;;;;;-0.58;100.00;92479.66;2140459;27;20033;-72
2022/11/20 00:03:51;;;;;;;7.40;4.07;;;;;;;-0.61;100.00;92488.25;2140644;27;20456;-72
2022/11/20 00:04:52;;;;;;;5.38;4.10;;;;;;;-0.64;100.00;92491.59;2133062;27;20357;-72
2022/11/20 00:05:53;;;;;;;4.95;3.75;;;;;;;-0.63;100.00;92490.47;2131735;27;20029;-72
2022/11/20 00:06:54;;;;;;;4.07;3.45;;;;;;;-0.64;100.00;92485.59;2131299;27;20031;-72
2022/11/20 00:07:55;;;;;;;5.07;3.80;;;;;;;-0.65;100.00;92491.97;2131735;27;20038;-72
2022/11/20 00:08:59;;;;;;;4.57;3.70;;;;;;;-0.64;100.00;92496.84;2124371;27;20038;-72
2022/11/20 00:10:00;;;;;;;7.95;3.97;;;;;;;-0.68;100.00;92492.69;2127149;27;20106;-72
2022/11/20 00:11:16;;;;;;;7.32;4.10;;;;;;;-0.76;100.00;92502.34;2122513;27;20025;-73
2022/11/20 00:12:17;;;;;;;8.88;4.10;;;;;;;-0.78;100.00;92494.09;2124900;27;20157;-72
2022/11/20 00:13:18;;;;;;;4.63;4.03;;;;;;;-0.74;100.00;92494.88;2131695;27;20142;-73
2022/11/20 00:14:19;;;;;;;4.60;3.75;;;;;;;-0.75;100.00;92493.34;2131915;27;20030;-72
2022/11/20 00:15:20;;;;;;;7.03;3.90;;;;;;;-0.78;100.00;92500.09;2138685;27;20065;-72
2022/11/20 00:16:24;;;;;;;5.47;4.00;;;;;;;-0.87;100.00;92497.00;2139810;27;20057;-72
2022/11/20 00:17:25;;;;;;;4.80;3.40;;;;;;;-0.79;100.00;92498.59;2140560;27;20018;-72
2022/11/20 00:18:27;;;;;;;3.80;3.40;;;;;;;-0.79;100.00;92492.56;2130914;27;20040;-72
2022/11/20 00:19:28;;;;;;;4.38;3.97;;;;;;;-0.80;100.00;92483.19;2131225;27;20072;-72
2022/11/20 00:20:29;;;;;;;4.28;3.88;;;;;;;-0.81;100.00;92500.03;2139372;27;20417;-72
2022/11/20 00:21:30;;;;;;;8.40;4.00;;;;;;;-0.84;100.00;92491.00;2140203;27;20101;-72
2022/11/20 00:22:31;;;;;;;4.32;3.70;;;;;;;-0.83;100.00;92495.16;2131190;27;20023;-72
2022/11/20 00:23:32;;;;;;;5.53;4.10;;;;;;;-0.88;100.00;92500.75;2131004;27;20030;-72
2022/11/20 00:24:33;;;;;;;7.13;3.72;;;;;;;-0.89;100.00;92493.97;2131157;27;20472;-72
2022/11/20 00:25:35;;;;;;;9.90;4.00;;;;;;;-0.90;100.00;92491.72;2130196;27;20019;-72
2022/11/20 00:26:36;;;;;;;7.80;3.95;;;;;;;-0.88;100.00;92503.38;2140154;27;20018;-73
2022/11/20 00:27:37;;;;;;;7.10;4.25;;;;;;;-0.95;100.00;92502.53;2140261;27;20045;-73
2022/11/20 00:28:39;;;;;;;6.70;4.28;;;;;;;-0.85;100.00;92505.25;2130981;27;20503;-76
2022/11/20 00:29:40;;;;;;;8.13;3.95;;;;;;;-0.85;100.00;92505.25;2131256;27;20047;-75
2022/11/20 00:30:41;;;;;;;6.57;3.65;;;;;;;-0.83;100.00;92491.78;2134571;27;20026;-75
2022/11/20 00:31:41;;;;;;;8.48;3.72;;;;;;;-0.83;100.00;92500.41;2122486;27;20031;-73
2022/11/20 00:32:42;;;;;;;11.90;3.80;;;;;;;-0.84;100.00;92492.88;2114137;28;20127;-72
2022/11/20 00:33:44;;;;;;;7.68;4.00;;;;;;;-0.94;100.00;92499.53;2113775;28;20023;-74
2022/11/20 00:34:45;;;;;;;6.68;3.78;;;;;;;-1.01;100.00;92491.56;2122594;27;20066;-73
2022/11/20 00:35:46;;;;;;;6.10;3.80;;;;;;;-1.03;100.00;92491.94;2135423;27;20038;-73
2022/11/20 00:36:47;;;;;;;5.90;4.00;;;;;;;-1.00;100.00;92492.34;2132719;27;20022;-72
2022/11/20 00:37:48;;;;;;;5.07;4.20;;;;;;;-1.10;100.00;92491.09;2131756;27;20101;-72
2022/11/20 00:38:53;;;;;;;6.85;3.60;;;;;;;-1.00;100.00;92487.09;2131523;27;20022;-72
2022/11/20 00:39:54;;;;;;;36.08;4.18;;;;;;;-1.02;100.00;92485.56;2131608;27;20492;-75
2022/11/20 00:41:00;;;;;;;8.50;3.83;;;;;;;-1.02;100.00;92485.56;2131480;27;20031;-74
2022/11/20 00:42:01;;;;;;;11.50;3.65;;;;;;;-1.08;100.00;92489.63;2131626;27;20398;-73
2022/11/20 00:43:02;;;;;;;6.32;3.40;;;;;;;-1.03;100.00;92493.81;2131624;27;20349;-73
2022/11/20 00:44:03;;;;;;;4.88;3.88;;;;;;;-1.07;100.00;92493.00;2131562;27;20030;-72
2022/11/20 00:45:05;;;;;;;5.20;3.67;;;;;;;-1.08;100.00;92488.88;2132123;27;20353;-73
2022/11/20 00:46:08;;;;;;;7.45;3.53;;;;;;;-1.15;100.00;92486.94;2131877;27;20023;-74
2022/11/20 00:47:10;;;;;;;13.40;3.70;;;;;;;-1.20;100.00;92487.25;2123200;27;20428;-73
2022/11/20 00:48:11;;;;;;;16.02;3.53;;;;;;;-1.09;100.00;92490.75;2122531;27;20110;-73
2022/11/20 00:49:11;;;;;;;11.98;3.75;;;;;;;-1.08;100.00;92483.66;2122251;27;20027;-72
2022/11/20 00:50:12;;;;;;;4.65;3.72;;;;;;;-1.08;100.00;92481.03;2105450;28;20039;-73
2022/11/20 00:51:20;;;;;;;5.45;4.20;;;;;;;-1.12;100.00;92485.47;2113902;27;20110;-73
2022/11/20 00:52:21;;;;;;;5.90;3.47;;;;;;;-1.23;100.00;92492.44;2131499;27;20035;-73
2022/11/20 00:53:23;;;;;;;5.72;3.58;;;;;;;-1.28;100.00;92488.28;2131611;27;20038;-73
2022/11/20 00:54:24;;;;;;;3.90;3.50;;;;;;;-1.30;100.00;92487.88;2131311;27;20050;-73
2022/11/20 00:55:25;;;;;;;4.32;3.42;;;;;;;-1.32;100.00;92482.22;2131630;27;20457;-72
2022/11/20 00:56:26;;;;;;;4.65;3.63;;;;;;;-1.42;100.00;92478.38;2130209;27;20023;-72
2022/11/20 00:57:27;;;;;;;5.28;3.40;;;;;;;-1.35;100.00;92480.34;2138216;27;20029;-73
2022/11/20 00:58:33;;;;;;;6.35;3.67;;;;;;;-1.39;100.00;92479.53;2130931;27;20057;-73
2022/11/20 00:59:34;;;;;;;5.05;3.40;;;;;;;-1.42;100.00;92483.59;2122970;27;20023;-72
2022/11/20 01:00:35;;;;;;;4.03;3.40;;;;;;;-1.39;100.00;92482.91;2130820;27;20022;-72
2022/11/20 01:01:37;;;;;;;3.50;2.70;;;;;;;-1.40;100.00;92489.25;2130883;27;20189;-73
2022/11/20 01:02:38;;;;;;;3.42;2.78;;;;;;;-1.42;100.00;92483.59;2123282;27;20050;-73
2022/11/20 01:03:44;;;;;;;4.50;3.15;;;;;;;-1.43;100.00;92491.84;2131481;27;20402;-73
2022/11/20 01:04:45;;;;;;;4.15;3.13;;;;;;;-1.51;100.00;92485.75;2131270;27;20449;-72
2022/11/20 01:05:46;;;;;;;3.20;2.90;;;;;;;-1.41;100.00;92490.34;2131510;27;20472;-72
2022/11/20 01:06:47;;;;;;;4.60;3.22;;;;;;;-1.49;100.00;92485.38;2130956;27;20026;-72
2022/11/20 01:07:48;;;;;;;3.50;2.80;;;;;;;-1.60;100.00;92486.00;2138009;27;20579;-72
2022/11/20 01:08:50;;;;;;;3.40;2.58;;;;;;;-1.57;100.00;92490.53;2140050;27;20021;-73
2022/11/20 01:09:51;;;;;;;3.47;2.53;;;;;;;-1.43;100.00;92486.59;2121878;27;20038;-72
2022/11/20 01:10:52;;;;;;;2.92;2.63;;;;;;;-1.36;100.00;92487.44;2122309;27;20103;-71
2022/11/20 01:11:53;;;;;;;3.90;2.40;;;;;;;-1.44;100.00;92491.09;2131441;27;20026;-71
2022/11/20 01:14:17;;;;;;;2.50;2.30;;;;;;;-1.41;100.00;92492.22;2140002;27;20095;-71
2022/11/20 01:15:18;;;;;;;3.03;2.03;;;;;;;-1.38;100.00;92494.16;2139856;27;20054;-71
2022/11/20 01:16:31;;;;;;;4.45;2.25;;;;;;;-1.35;100.00;92496.06;2139425;27;20472;-71
2022/11/20 01:17:32;;;;;;;4.82;2.47;;;;;;;-1.32;100.00;92493.50;2126677;27;20057;-73
2022/11/20 01:18:34;;;;;;;2.50;2.28;;;;;;;-1.31;100.00;92486.38;2122282;27;20033;-73
2022/11/20 01:19:35;;;;;;;2.97;2.63;;;;;;;-1.32;100.00;92496.13;2113562;28;20134;-73
2022/11/20 01:20:36;;;;;;;3.47;2.38;;;;;;;-1.32;100.00;92495.34;2113659;27;20027;-72
2022/11/20 01:21:40;;;;;;;4.00;2.95;;;;;;;-1.33;100.00;92496.44;2131576;27;20023;-73
2022/11/20 01:22:41;;;;;;;7.15;2.78;;;;;;;-1.41;100.00;92500.09;2136330;27;20095;-74
2022/11/20 01:23:43;;;;;;;4.95;2.28;;;;;;;-1.43;100.00;92503.06;2140508;27;20043;-71
2022/11/20 01:24:44;;;;;;;8.82;2.10;;;;;;;-1.34;100.00;92500.19;2139950;27;20026;-71
2022/11/20 01:25:45;;;;;;;6.32;2.40;;;;;;;-1.41;100.00;92502.72;2139856;27;20093;-72
2022/11/20 01:26:48;;;;;;;7.57;2.20;;;;;;;-1.39;100.00;92503.88;2130364;27;20015;-71
2022/11/20 01:27:49;;;;;;;2.20;2.00;;;;;;;-1.35;100.00;92503.94;2130422;27;20027;-71
2022/11/20 01:28:51;;;;;;;2.35;2.15;;;;;;;-1.39;100.00;92508.38;2131312;27;20026;-72
2022/11/20 01:29:52;;;;;;;6.45;2.00;;;;;;;-1.39;100.00;92505.75;2131209;27;20026;-71
2022/11/20 01:30:53;;;;;;;2.13;1.95;;;;;;;-1.44;100.00;92503.44;2121806;27;20048;-74
2022/11/20 01:31:54;;;;;;;2.30;2.10;;;;;;;-1.44;100.00;92511.31;2122070;27;20047;-74
2022/11/20 01:32:55;;;;;;;2.00;1.90;;;;;;;-1.39;100.00;92511.00;2121794;27;20038;-74
2022/11/20 01:33:59;;;;;;;2.78;2.28;;;;;;;-1.46;100.00;92514.25;2129791;27;20027;-71
2022/11/20 01:35:00;;;;;;;2.15;1.95;;;;;;;-1.41;100.00;92503.47;2139720;27;20033;-71
2022/11/20 01:36:05;;;;;;;4.45;2.20;;;;;;;-1.37;100.00;92508.75;2129471;27;20025;-71
2022/11/20 01:37:06;;;;;;;1.90;1.80;;;;;;;-1.39;100.00;92501.25;2122675;27;20019;-71
2022/11/20 01:38:07;;;;;;;1.90;1.80;;;;;;;-1.39;100.00;92505.75;2122071;27;20153;-71
2022/11/20 01:39:20;;;;;;;3.80;2.40;;;;;;;-1.33;100.00;92515.56;2121888;27;20031;-71
2022/11/20 01:40:20;;;;;;;2.42;2.20;;;;;;;-1.36;100.00;92511.03;2131214;27;20036;-71
2022/11/20 01:44:41;;;;;;;2.90;2.15;;;;;;;-1.21;100.00;92504.09;2138757;27;20038;-71
2022/11/20 01:46:00;;;;;;;4.05;2.45;;;;;;;-1.27;100.00;92514.16;2139726;27;20466;-71
2022/11/20 01:47:05;;;;;;;2.95;2.63;;;;;;;-1.27;100.00;92508.91;2130397;27;20468;-71
2022/11/20 01:48:06;;;;;;;4.03;2.53;;;;;;;-1.22;100.00;92505.22;2131020;27;20077;-72
2022/11/20 01:49:21;;;;;;;2.60;2.40;;;;;;;-1.22;100.00;92509.69;2129669;27;20471;-72
2022/11/20 01:50:28;;;;;;;7.20;3.00;;;;;;;-1.25;100.00;92515.66;2124127;27;20038;-72
2022/11/20 01:51:34;;;;;;;3.97;3.10;;;;;;;-1.22;100.00;92510.47;2122611;27;20027;-72
2022/11/20 01:52:47;;;;;;;3.20;2.90;;;;;;;-1.26;100.00;92507.03;2123189;27;20027;-72
2022/11/20 01:53:50;;;;;;;3.50;2.83;;;;;;;-1.24;100.00;92504.78;2131949;27;20030;-72
2022/11/20 01:55:05;;;;;;;3.65;2.70;;;;;;;-1.20;100.00;92508.22;2131151;27;20023;-72
2022/11/20 01:56:10;;;;;;;4.13;2.70;;;;;;;-1.26;100.00;92512.28;2130534;27;20114;-71
2022/11/20 01:57:12;;;;;;;2.58;2.38;;;;;;;-1.22;100.00;92501.84;2130969;27;20042;-72
2022/11/20 01:58:13;;;;;;;3.45;2.53;;;;;;;-1.15;100.00;92505.28;2131142;27;20022;-71
2022/11/20 01:59:17;;;;;;;3.95;2.60;;;;;;;-1.15;100.00;92501.91;2131617;27;20130;-72
2022/11/20 02:00:20;;;;;;;4.75;2.80;;;;;;;-1.12;100.00;92506.44;2139498;27;20372;-71
2022/11/20 02:01:21;;;;;;;3.95;2.90;;;;;;;-1.14;100.00;92498.94;2139512;27;20462;-71
2022/11/20 02:02:22;;;;;;;3.13;2.60;;;;;;;-1.13;100.00;92504.94;2139536;27;20082;-72
2022/11/20 02:03:24;;;;;;;4.50;2.72;;;;;;;-1.08;100.00;92510.63;2139663;27;20452;-71
2022/11/20 02:04:25;;;;;;;2.92;2.50;;;;;;;-1.10;100.00;92505.00;2137348;27;20467;-71
2022/11/20 02:05:47;;;;;;;4.82;2.70;;;;;;;-1.10;100.00;92506.84;2131015;27;20130;-72
2022/11/20 02:06:57;;;;;;;3.58;2.58;;;;;;;-1.03;100.00;92506.94;2130374;27;20023;-72
2022/11/20 02:07:59;;;;;;;2.90;2.38;;;;;;;-1.03;100.00;92518.16;2130901;27;20030;-71
2022/11/20 02:09:00;;;;;;;3.20;2.33;;;;;;;-1.05;100.00;92507.28;2132349;27;20410;-72
2022/11/20 02:10:01;;;;;;;4.28;2.30;;;;;;;-1.10;100.00;92512.84;2138946;27;20027;-72
2022/11/20 02:11:03;;;;;;;3.78;2.60;;;;;;;-1.03;100.00;92507.69;2139597;27;20025;-72
2022/11/20 02:12:04;;;;;;;2.70;2.20;;;;;;;-0.98;100.00;92505.84;2130000;27;20049;-72
2022/11/20 02:14:26;;;;;;;3.58;2.22;;;;;;;-1.09;100.00;92506.50;2133072;27;20030;-72
2022/11/20 02:16:46;;;;;;;;;;;;;;;-1.13;100.00;92516.19;2147296;27;20521;-72
2022/11/20 02:17:48;;;;;;;3.65;2.53;;;;;;;-1.10;100.00;92509.44;2137748;27;19915;-72
2022/11/20 02:18:50;;;;;;;3.95;2.30;;;;;;;-1.18;100.00;92513.13;2138093;27;20034;-72
2022/11/20 02:19:51;;;;;;;6.07;2.75;;;;;;;-1.16;100.00;92511.66;2147057;27;20034;-72
2022/11/20 02:21:23;;;;;;;3.67;2.72;;;;;;;-1.12;100.00;92509.06;2141859;27;20337;-72
2022/11/20 02:22:35;;;;;;;2.30;2.10;;;;;;;-1.20;100.00;92502.97;2129006;27;20506;-73
2022/11/20 02:23:43;;;;;;;2.10;1.90;;;;;;;-1.16;100.00;92509.03;2132330;27;20445;-72
2022/11/20 02:24:45;;;;;;;2.60;2.40;;;;;;;-1.18;100.00;92511.25;2130106;27;20080;-73
2022/11/20 02:25:47;;;;;;;2.78;2.40;;;;;;;-1.13;100.00;92504.94;2129451;27;20015;-73
2022/11/20 02:27:00;;;;;;;2.60;2.40;;;;;;;-1.11;100.00;92503.47;2138219;27;20159;-73
2022/11/20 02:28:02;;;;;;;2.42;2.22;;;;;;;-1.06;100.00;92513.63;2138548;27;20090;-73
2022/11/20 02:29:03;;;;;;;4.20;2.20;;;;;;;-1.08;100.00;92507.25;2138681;27;20022;-73
2022/11/20 02:30:10;;;;;;;2.70;2.20;;;;;;;-1.07;100.00;92511.38;2138678;27;20030;-73
2022/11/20 02:31:11;;;;;;;2.50;2.30;;;;;;;-1.15;100.00;92509.78;2138174;27;20014;-73
2022/11/20 02:32:42;;;;;;;4.55;2.88;;;;;;;-1.06;100.00;92511.00;2138275;27;20083;-73
2022/11/20 02:33:43;;;;;;;4.10;2.38;;;;;;;-1.01;100.00;92509.94;2129001;27;20058;-73
2022/11/20 02:34:44;;;;;;;2.85;2.28;;;;;;;-0.96;100.00;92511.50;2138256;27;20034;-73
2022/11/20 02:35:46;;;;;;;4.97;2.47;;;;;;;-0.99;100.00;92514.84;2129009;27;20022;-73
2022/11/20 02:36:51;;;;;;;3.13;2.00;;;;;;;-0.95;100.00;92510.41;2127756;27;20031;-73
2022/11/20 02:37:54;;;;;;;2.53;2.33;;;;;;;-0.94;100.00;92509.28;2137972;27;20019;-73
2022/11/20 02:38:55;;;;;;;2.55;2.33;;;;;;;-0.91;100.00;92516.44;2147089;27;20365;-73
2022/11/20 02:39:57;;;;;;;3.55;2.13;;;;;;;-0.90;100.00;92507.44;2147016;27;20039;-74
2022/11/20 02:40:58;;;;;;;2.50;2.30;;;;;;;-0.81;100.00;92505.28;2147208;27;20026;-73
2022/11/20 02:42:00;;;;;;;3.15;2.65;;;;;;;-0.78;100.00;92507.97;2138761;27;20019;-73
2022/11/20 02:43:02;;;;;;;3.78;2.13;;;;;;;-0.74;100.00;92515.13;2138173;27;20027;-73
2022/11/20 02:44:04;;;;;;;3.20;2.03;;;;;;;-0.79;100.00;92516.94;2138249;27;20074;-74
2022/11/20 02:45:06;;;;;;;6.28;2.30;;;;;;;-0.83;100.00;92507.53;2128795;27;20027;-73
2022/11/20 02:46:08;;;;;;;2.58;2.03;;;;;;;-0.84;100.00;92511.25;2128580;27;20366;-73
2022/11/20 02:47:09;;;;;;;2.53;2.15;;;;;;;-0.92;100.00;92501.78;2135858;27;20031;-73
2022/11/20 02:48:10;;;;;;;4.13;2.45;;;;;;;-0.91;100.00;92498.06;2146785;27;20065;-73
2022/11/20 02:49:11;;;;;;;5.50;2.28;;;;;;;-0.93;100.00;92501.03;2146977;27;20066;-73
2022/11/20 02:50:12;;;;;;;5.55;2.38;;;;;;;-0.95;100.00;92502.53;2136263;27;20022;-72
2022/11/20 02:51:13;;;;;;;2.40;2.20;;;;;;;-1.01;100.00;92504.69;2129065;27;20065;-73
2022/11/20 02:52:14;;;;;;;4.45;2.22;;;;;;;-1.04;100.00;92498.31;2128686;27;20027;-73
2022/11/20 02:53:15;;;;;;;4.03;2.03;;;;;;;-1.07;100.00;92498.25;2128784;27;20015;-72
2022/11/20 02:54:16;;;;;;;2.60;2.40;;;;;;;-1.10;100.00;92499.75;2138166;27;20033;-73
2022/11/20 02:55:17;;;;;;;2.45;2.25;;;;;;;-1.15;100.00;92502.66;2138237;27;20054;-73
2022/11/20 02:56:18;;;;;;;3.22;2.45;;;;;;;-1.31;100.00;92491.63;2137769;27;20330;-73
2022/11/20 02:57:19;;;;;;;3.20;2.20;;;;;;;-1.26;100.00;92493.94;2142856;27;20021;-72
2022/11/20 02:58:20;;;;;;;4.90;2.20;;;;;;;-1.28;100.00;92489.03;2146603;27;20229;-72
2022/11/20 02:59:21;;;;;;;3.03;2.30;;;;;;;-1.22;100.00;92486.09;2146811;27;20026;-72
2022/11/20 03:00:22;;;;;;;2.33;2.13;;;;;;;-1.30;100.00;92491.25;2146957;27;20047;-72
2022/11/20 03:01:23;;;;;;;2.22;2.10;;;;;;;-1.35;100.00;92485.56;2146827;27;20208;-72
2022/11/20 03:02:24;;;;;;;3.08;2.47;;;;;;;-1.32;100.00;92482.22;2146068;27;20638;-72
2022/11/20 03:03:25;;;;;;;5.85;2.40;;;;;;;-1.29;100.00;92484.16;2146647;27;20026;-72
2022/11/20 03:04:26;;;;;;;2.70;2.05;;;;;;;-1.35;100.00;92488.19;2146710;27;20105;-72
2022/11/20 03:05:27;;;;;;;2.28;2.08;;;;;;;-1.41;100.00;92481.75;2137478;27;20109;-72
2022/11/20 03:06:28;;;;;;;3.03;2.25;;;;;;;-1.41;100.00;92479.88;2137081;27;20034;-72
2022/11/20 03:07:29;;;;;;;2.30;2.10;;;;;;;-1.44;100.00;92485.84;2146818;27;20026;-72
2022/11/20 03:08:30;;;;;;;3.70;2.35;;;;;;;-1.43;100.00;92484.72;2136337;27;20034;-73
2022/11/20 03:09:31;;;;;;;3.05;2.30;;;;;;;-1.39;100.00;92482.91;2143214;27;20049;-73
2022/11/20 03:10:31;;;;;;;3.47;2.10;;;;;;;-1.46;100.00;92482.06;2146907;27;20026;-73
2022/11/20 03:11:32;;;;;;;2.28;2.08;;;;;;;-1.48;100.00;92479.81;2146838;27;20033;-73
2022/11/20 03:12:33;;;;;;;4.28;1.90;;;;;;;-1.48;100.00;92473.81;2146778;27;20018;-73
2022/11/20 03:13:35;;;;;;;3.58;2.47;;;;;;;-1.47;100.00;92480.56;2139526;27;20066;-73
2022/11/20 03:14:36;;;;;;;2.47;2.20;;;;;;;-1.50;100.00;92476.00;2137860;27;20018;-73
2022/11/20 03:15:37;;;;;;;4.90;2.30;;;;;;;-1.55;100.00;92480.44;2138058;27;20046;-73
2022/11/20 03:16:38;;;;;;;3.70;2.42;;;;;;;-1.50;100.00;92473.41;2137448;27;20042;-73
2022/11/20 03:17:39;;;;;;;2.03;1.83;;;;;;;-1.62;100.00;92471.75;2138151;27;20059;-73
2022/11/20 03:18:41;;;;;;;2.60;2.13;;;;;;;-1.67;100.00;92467.56;2137830;27;20769;-73
2022/11/20 03:19:42;;;;;;;3.97;1.80;;;;;;;-1.64;100.00;92471.34;2137858;27;20020;-73
2022/11/20 03:20:43;;;;;;;5.88;2.05;;;;;;;-1.65;100.00;92478.47;2138013;27;20021;-73
2022/11/20 03:21:44;;;;;;;6.70;1.90;;;;;;;-1.59;100.00;92476.28;2137962;27;20037;-73
2022/11/20 03:22:45;;;;;;;14.18;2.05;;;;;;;-1.66;100.00;92476.94;2128711;27;20477;-73
2022/11/20 03:23:46;;;;;;;13.23;1.90;;;;;;;-1.69;100.00;92469.78;2129434;27;20030;-72
2022/11/20 03:24:47;;;;;;;7.45;2.05;;;;;;;-1.68;100.00;92473.91;2146535;27;20104;-73
2022/11/20 03:25:48;;;;;;;3.20;1.52;;;;;;;-1.80;100.00;92467.03;2146646;27;20022;-72
2022/11/20 03:26:49;;;;;;;2.10;1.70;;;;;;;-1.69;100.00;92475.03;2136779;27;20675;-74
2022/11/20 03:27:51;;;;;;;2.00;1.45;;;;;;;-1.66;100.00;92478.81;2132946;27;20027;-75
2022/11/20 03:28:54;;;;;;;2.55;1.65;;;;;;;-1.65;100.00;92480.31;2140764;27;20055;-73
2022/11/20 03:29:55;;;;;;;1.90;1.70;;;;;;;-1.66;100.00;92481.44;2139977;27;20014;-76
2022/11/20 03:30:56;;;;;;;2.78;1.67;;;;;;;-1.72;100.00;92488.06;2140848;27;20030;-74
2022/11/20 03:31:57;;;;;;;1.70;1.60;;;;;;;-1.67;100.00;92480.66;2140801;27;20015;-75
2022/11/20 03:32:58;;;;;;;1.58;1.48;;;;;;;-1.74;100.00;92477.97;2140838;27;20029;-73
2022/11/20 03:34:00;;;;;;;1.73;1.63;;;;;;;-1.70;100.00;92485.88;2140868;27;20058;-73
2022/11/20 03:35:01;;;;;;;1.67;1.52;;;;;;;-1.71;100.00;92485.13;2134493;27;20031;-73
2022/11/20 03:36:08;;;;;;;2.80;1.52;;;;;;;-1.76;100.00;92490.63;2131749;27;20018;-72
2022/11/20 03:37:09;;;;;;;2.13;1.58;;;;;;;-1.85;100.00;92488.28;2132205;27;20524;-73
2022/11/20 03:38:10;;;;;;;2.33;1.40;;;;;;;-1.83;100.00;92488.69;2132186;27;20030;-73
2022/11/20 03:39:12;;;;;;;2.60;1.60;;;;;;;-1.78;100.00;92498.88;2132104;27;20538;-74
2022/11/20 03:40:13;;;;;;;2.45;1.58;;;;;;;-1.77;100.00;92495.13;2130570;27;20160;-74
2022/11/20 03:41:17;;;;;;;1.95;1.70;;;;;;;-1.77;100.00;92502.22;2122958;27;20357;-75
2022/11/20 03:43:38;;;;;;;2.20;2.10;;;;;;;-1.89;100.00;92495.34;2132106;27;20026;-75
2022/11/20 03:44:39;;;;;;;1.85;1.50;;;;;;;-1.84;100.00;92492.44;2131910;27;20031;-74
2022/11/20 03:45:40;;;;;;;1.73;1.48;;;;;;;-1.87;100.00;92489.75;2139224;27;20022;-72
2022/11/20 03:46:41;;;;;;;3.42;1.38;;;;;;;-1.90;100.00;92493.06;2131020;27;20022;-73
2022/11/20 03:47:42;;;;;;;1.42;1.33;;;;;;;-1.91;100.00;92491.56;2131481;27;20453;-75
2022/11/20 03:48:43;;;;;;;2.45;1.60;;;;;;;-1.88;100.00;92486.38;2140607;27;20049;-74
2022/11/20 03:49:44;;;;;;;1.77;1.48;;;;;;;-1.85;100.00;92487.53;2140472;27;20022;-75
2022/11/20 03:50:47;;;;;;;4.68;1.40;;;;;;;-1.79;100.00;92494.00;2133618;27;20018;-72
2022/11/20 03:51:48;;;;;;;1.27;1.13;;;;;;;-1.79;100.00;92486.13;2132274;27;20014;-75
2022/11/20 03:52:49;;;;;;;1.45;1.20;;;;;;;-1.74;100.00;92480.59;2132040;27;20102;-75
2022/11/20 03:53:52;;;;;;;5.40;1.50;;;;;;;-1.69;100.00;92485.50;2131931;27;20086;-72
2022/11/20 03:54:53;;;;;;;2.08;1.60;;;;;;;-1.72;100.00;92486.22;2131955;27;20471;-73
2022/11/20 03:55:54;;;;;;;2.67;1.60;;;;;;;-1.75;100.00;92483.56;2137490;27;20049;-73
2022/11/20 03:56:55;;;;;;;3.10;1.52;;;;;;;-1.73;100.00;92489.94;2140376;27;20011;-73
2022/11/20 03:57:56;;;;;;;2.17;1.67;;;;;;;-1.65;100.00;92481.06;2140632;27;20499;-73
2022/11/20 03:58:57;;;;;;;2.92;1.88;;;;;;;-1.56;100.00;92484.19;2131352;27;20369;-72
2022/11/20 03:59:58;;;;;;;2.25;1.80;;;;;;;-1.50;100.00;92486.50;2131296;27;20429;-72
2022/11/20 04:01:05;;;;;;;2.25;1.70;;;;;;;-1.47;100.00;92491.03;2139384;27;20025;-72
2022/11/20 04:02:06;;;;;;;4.60;1.90;;;;;;;-1.42;100.00;92488.09;2140410;27;20364;-73
2022/11/20 04:03:07;;;;;;;3.65;1.98;;;;;;;-1.38;100.00;92484.41;2131339;27;20101;-72
2022/11/20 04:04:08;;;;;;;2.20;1.80;;;;;;;-1.34;100.00;92492.31;2131253;27;20015;-72
2022/11/20 04:05:09;;;;;;;2.67;1.65;;;;;;;-1.32;100.00;92495.34;2140379;27;20022;-72
2022/11/20 04:06:19;;;;;;;6.63;2.00;;;;;;;-1.20;100.00;92489.88;2138083;27;20038;-72
2022/11/20 04:07:20;;;;;;;;;;;;;;;-0.87;100.00;92494.38;2132186;27;20053;-73
2022/11/20 04:08:22;;;;;;;4.35;1.88;;;;;;;-0.81;100.00;92485.06;2122772;27;20396;-72
2022/11/20 04:09:23;;;;;;;2.95;1.92;;;;;;;-0.89;100.00;92490.59;2132100;27;20050;-72
2022/11/20 04:10:25;;;;;;;2.47;1.92;;;;;;;-0.92;100.00;92492.06;2140001;27;20440;-73
2022/11/20 04:11:32;;;;;;;2.10;1.80;;;;;;;-0.91;100.00;92492.81;2139966;27;20057;-72
2022/11/20 04:12:33;;;;;;;2.35;1.85;;;;;;;-0.70;100.00;92493.06;2133492;27;20035;-73
2022/11/20 04:13:34;;;;;;;2.60;1.95;;;;;;;-0.88;100.00;92489.47;2131992;27;20062;-72
2022/11/20 04:14:35;;;;;;;2.53;1.90;;;;;;;-0.78;100.00;92489.59;2131805;27;20050;-72
2022/11/20 04:15:36;;;;;;;1.75;1.60;;;;;;;-0.90;100.00;92487.22;2122606;27;20349;-72
2022/11/20 04:16:37;;;;;;;2.13;1.73;;;;;;;-0.96;100.00;92488.66;2121676;27;20130;-72
2022/11/20 04:17:38;;;;;;;2.55;1.80;;;;;;;-0.92;100.00;92491.28;2127278;27;20025;-73
2022/11/20 04:18:39;;;;;;;4.15;1.88;;;;;;;-0.89;100.00;92488.72;2131219;27;20023;-73
2022/11/20 04:19:40;;;;;;;1.67;1.50;;;;;;;-0.88;100.00;92495.50;2131712;27;20114;-72
2022/11/20 04:20:41;;;;;;;3.25;1.70;;;;;;;-0.91;100.00;92484.97;2131730;27;20399;-72
2022/11/20 04:21:43;;;;;;;2.55;1.58;;;;;;;-0.95;100.00;92484.16;2131014;27;20072;-72
2022/11/20 04:22:44;;;;;;;2.55;1.80;;;;;;;-0.99;100.00;92478.13;2121919;27;20069;-72
2022/11/20 04:23:45;;;;;;;2.38;1.83;;;;;;;-0.97;100.00;92483.75;2131137;27;20507;-72
2022/11/20 04:24:46;;;;;;;2.97;1.98;;;;;;;-0.83;100.00;92481.31;2131746;27;20050;-72
2022/11/20 04:25:47;;;;;;;7.00;1.80;;;;;;;-0.82;100.00;92486.19;2131855;27;20023;-72
2022/11/20 04:26:48;;;;;;;2.05;1.70;;;;;;;-0.82;100.00;92480.94;2131120;27;20039;-72
2022/11/20 04:27:48;;;;;;;5.82;2.08;;;;;;;-0.88;100.00;92478.97;2131728;27;20026;-72
2022/11/20 04:28:50;;;;;;;1.77;1.67;;;;;;;-0.80;100.00;92480.56;2121620;27;20369;-72
2022/11/20 04:29:51;;;;;;;3.03;2.00;;;;;;;-0.59;100.00;92482.66;2122691;27;20580;-72
2022/11/20 04:30:52;;;;;;;5.60;2.15;;;;;;;-0.66;100.00;92474.69;2122366;27;20019;-72
2022/11/20 04:31:53;;;;;;;2.20;1.73;;;;;;;-0.64;100.00;92482.97;2122380;27;20045;-72
2022/11/20 04:32:54;;;;;;;2.63;1.90;;;;;;;-0.63;100.00;92479.97;2131540;27;20453;-72
2022/11/20 04:33:55;;;;;;;2.53;2.10;;;;;;;-0.63;100.00;92485.22;2124384;27;20027;-72
2022/11/20 04:34:56;;;;;;;2.63;1.90;;;;;;;-0.71;100.00;92494.16;2122343;27;20549;-72
2022/11/20 04:36:03;;;;;;;3.10;2.00;;;;;;;-0.72;100.00;92486.63;2122282;27;20015;-72
2022/11/20 04:37:04;;;;;;;6.05;2.17;;;;;;;-0.68;100.00;92487.44;2122949;27;20026;-73
2022/11/20 04:38:05;;;;;;;3.10;2.13;;;;;;;-0.73;100.00;92485.88;2123031;27;20548;-73
2022/11/20 04:39:06;;;;;;;3.35;1.85;;;;;;;-0.69;100.00;92485.94;2123898;27;20023;-73
2022/11/20 04:40:07;;;;;;;4.68;2.15;;;;;;;-0.57;100.00;92486.44;2130236;27;20100;-73
2022/11/20 04:41:15;;;;;;;2.38;1.80;;;;;;;-0.57;100.00;92489.06;2131749;27;20045;-73
2022/11/20 04:42:28;;;;;;;2.08;1.90;;;;;;;-0.58;100.00;92484.91;2131483;27;20025;-74
2022/11/20 04:43:29;;;;;;;2.72;2.40;;;;;;;-0.58;100.00;92486.78;2131479;27;20030;-73
2022/11/20 04:44:30;;;;;;;2.45;1.90;;;;;;;-0.58;100.00;92490.16;2130809;27;20360;-73
2022/11/20 04:45:31;;;;;;;3.72;2.22;;;;;;;-0.51;100.00;92486.84;2123113;27;20019;-73
2022/11/20 04:46:38;;;;;;;2.60;1.83;;;;;;;-0.54;100.00;92490.94;2122744;27;20034;-73
2022/11/20 04:47:39;;;;;;;4.68;2.10;;;;;;;-0.56;100.00;92487.94;2122889;27;20111;-73
2022/11/20 04:48:40;;;;;;;4.15;1.98;;;;;;;-0.57;100.00;92493.53;2122110;27;20015;-73
2022/11/20 04:49:41;;;;;;;4.03;1.98;;;;;;;-0.57;100.00;92490.91;2121924;27;20518;-72
2022/11/20 04:50:42;;;;;;;3.22;2.03;;;;;;;-0.59;100.00;92493.16;2130793;27;20030;-73
2022/11/20 04:51:43;;;;;;;3.88;2.17;;;;;;;-0.63;100.00;92495.72;2122316;27;20080;-73
2022/11/20 04:52:44;;;;;;;3.47;2.20;;;;;;;-0.63;100.00;92490.47;2122212;27;20110;-73
2022/11/20 04:53:45;;;;;;;5.80;2.03;;;;;;;-0.67;100.00;92491.56;2122875;27;20398;-72
2022/11/20 04:54:46;;;;;;;5.70;2.00;;;;;;;-0.70;100.00;92487.81;2122920;27;20053;-72
2022/11/20 04:55:47;;;;;;;2.88;2.00;;;;;;;-0.65;100.00;92490.09;2129933;27;20023;-72
2022/11/20 04:56:48;;;;;;;2.35;1.98;;;;;;;-0.69;100.00;92494.56;2131131;27;20019;-73
2022/11/20 04:57:51;;;;;;;5.10;2.05;;;;;;;-0.71;100.00;92486.28;2131333;27;20031;-72
2022/11/20 04:58:52;;;;;;;5.30;1.95;;;;;;;-0.70;100.00;92493.06;2131527;27;20121;-72